createdAt,value
2019-01-12T00:00:03.376Z,12.2
2019-01-12T00:01:03.568Z,13.3
2019-01-12T00:02:02.835Z,15.8
2019-01-12T00:03:03.771Z,15.8
2019-01-12T00:04:03.395Z,14.8
2019-01-12T00:05:03.453Z,14.8
2019-01-12T00:06:02.898Z,17.3
2019-01-12T00:07:02.913Z,14.8
2019-01-12T00:08:03.528Z,12.2
2019-01-12T00:09:03.158Z,12.2
2019-01-12T00:10:02.893Z,15.8
2019-01-12T00:11:03.056Z,15.8
2019-01-12T00:12:03.056Z,17.3
2019-01-12T00:13:03.331Z,14.8
2019-01-12T00:14:03.672Z,17.3
2019-01-12T00:15:02.819Z,17.3
2019-01-12T00:16:03.654Z,17.3
2019-01-12T00:17:03.378Z,13.3
2019-01-12T00:18:02.831Z,13.3
2019-01-12T00:19:03.618Z,14.8
2019-01-12T00:20:03.250Z,15.8
2019-01-12T00:21:02.995Z,15.8
2019-01-12T00:22:03.069Z,19.4
2019-01-12T00:23:03.193Z,11.2
2019-01-12T00:24:03.383Z,12.2
2019-01-12T00:25:03.629Z,12.2
2019-01-12T00:26:03.014Z,15.8
2019-01-12T00:27:03.252Z,19.4
2019-01-12T00:28:03.642Z,20.9
2019-01-12T00:29:02.697Z,15.8
2019-01-12T00:30:03.531Z,17.3
2019-01-12T00:31:03.223Z,14.8
2019-01-12T00:32:03.240Z,14.8
2019-01-12T00:33:03.419Z,17.3
2019-01-12T00:34:03.284Z,19.4
2019-01-12T00:35:03.521Z,20.9
2019-01-12T00:36:03.186Z,19.4
2019-01-12T00:37:03.690Z,17.3
2019-01-12T00:38:03.110Z,19.4
2019-01-12T00:39:03.426Z,17.3
2019-01-12T00:40:03.401Z,19.4
2019-01-12T00:41:03.528Z,18.4
2019-01-12T00:42:02.805Z,22
2019-01-12T00:43:03.528Z,17.3
2019-01-12T00:44:03.368Z,15.8
2019-01-12T00:45:03.733Z,15.8
2019-01-12T00:46:03.039Z,19.4
2019-01-12T00:47:03.058Z,19.4
2019-01-12T00:48:03.064Z,17.3
2019-01-12T00:49:02.913Z,19.4
2019-01-12T00:50:03.429Z,20.9
2019-01-12T00:51:03.021Z,17.3
2019-01-12T00:52:03.603Z,20.9
2019-01-12T00:53:03.049Z,20.9
2019-01-12T00:54:03.019Z,15.8
2019-01-12T00:55:03.138Z,15.8
2019-01-12T00:56:03.691Z,14.8
2019-01-12T00:57:03.206Z,12.2
2019-01-12T00:58:03.542Z,11.2
2019-01-12T00:59:02.885Z,14.8
2019-01-12T01:00:03.305Z,14.8
2019-01-12T01:01:02.941Z,13.3
2019-01-12T01:02:03.702Z,13.3
2019-01-12T01:03:03.355Z,13.3
2019-01-12T01:04:03.606Z,13.3
2019-01-12T01:05:03.222Z,13.3
2019-01-12T01:06:02.805Z,13.3
2019-01-12T01:07:02.971Z,13.3
2019-01-12T01:08:03.342Z,13.3
2019-01-12T01:09:02.772Z,8.6
2019-01-12T01:10:03.157Z,9.7
2019-01-12T01:11:03.655Z,9.7
2019-01-12T01:12:02.938Z,12.2
2019-01-12T01:13:03.147Z,12.2
2019-01-12T01:14:02.843Z,11.2
2019-01-12T01:15:03.243Z,11.2
2019-01-12T01:16:03.485Z,12.2
2019-01-12T01:17:03.080Z,9.7
2019-01-12T01:18:03.273Z,8.6
2019-01-12T01:19:03.180Z,11.2
2019-01-12T01:20:03.267Z,8.6
2019-01-12T01:21:03.669Z,9.7
2019-01-12T01:22:03.388Z,9.7
2019-01-12T01:23:02.992Z,11.2
2019-01-12T01:24:02.947Z,8.6
2019-01-12T01:25:03.294Z,6.1
2019-01-12T01:26:03.069Z,7.2
2019-01-12T01:27:03.717Z,9.7
2019-01-12T01:28:03.245Z,8.6
2019-01-12T01:29:03.457Z,8.6
2019-01-12T01:30:03.613Z,12.2
2019-01-12T01:31:03.448Z,12.2
2019-01-12T01:32:02.814Z,12.2
2019-01-12T01:33:03.664Z,13.3
2019-01-12T01:34:03.349Z,9.7
2019-01-12T01:35:03.690Z,12.2
2019-01-12T01:36:03.232Z,12.2
2019-01-12T01:37:02.785Z,8.6
2019-01-12T01:38:03.500Z,9.7
2019-01-12T01:39:03.019Z,14.8
2019-01-12T01:40:02.903Z,9.7
2019-01-12T01:41:03.667Z,9.7
2019-01-12T01:42:03.797Z,13.3
2019-01-12T01:43:03.253Z,11.2
2019-01-12T01:44:03.669Z,11.2
2019-01-12T01:45:03.276Z,13.3
2019-01-12T01:46:03.495Z,9.7
2019-01-12T01:47:02.691Z,12.2
2019-01-12T01:48:03.715Z,9.7
2019-01-12T01:49:02.762Z,13.3
2019-01-12T01:50:03.519Z,13.3
2019-01-12T01:51:03.739Z,9.7
2019-01-12T01:52:03.318Z,11.2
2019-01-12T01:53:02.907Z,13.3
2019-01-12T01:54:03.523Z,8.6
2019-01-12T01:55:03.908Z,7.2
2019-01-12T01:56:03.330Z,12.2
2019-01-12T01:57:03.450Z,9.7
2019-01-12T01:58:03.038Z,12.2
2019-01-12T01:59:03.653Z,9.7
2019-01-12T02:00:03.026Z,8.6
2019-01-12T02:01:03.566Z,9.7
2019-01-12T02:02:02.907Z,8.6
2019-01-12T02:03:03.724Z,11.2
2019-01-12T02:04:03.603Z,11.2
2019-01-12T02:05:03.224Z,13.3
2019-01-12T02:06:03.841Z,13.3
2019-01-12T02:07:03.047Z,12.2
2019-01-12T02:08:03.717Z,9.7
2019-01-12T02:09:02.766Z,15.8
2019-01-12T02:10:03.435Z,12.2
2019-01-12T02:11:03.626Z,9.7
2019-01-12T02:12:03.102Z,9.7
2019-01-12T02:13:03.193Z,11.2
2019-01-12T02:14:02.985Z,9.7
2019-01-12T02:15:03.281Z,13.3
2019-01-12T02:16:02.713Z,12.2
2019-01-12T02:17:03.343Z,12.2
2019-01-12T02:18:03.573Z,11.2
2019-01-12T02:19:02.761Z,12.2
2019-01-12T02:20:03.806Z,11.2
2019-01-12T02:21:03.040Z,11.2
2019-01-12T02:22:03.275Z,17.3
2019-01-12T02:23:02.863Z,17.3
2019-01-12T02:24:03.097Z,11.2
2019-01-12T02:25:03.774Z,8.6
2019-01-12T02:26:03.300Z,8.6
2019-01-12T02:27:03.415Z,11.2
2019-01-12T02:28:03.014Z,9.7
2019-01-12T02:29:03.468Z,11.2
2019-01-12T02:30:03.056Z,12.2
2019-01-12T02:31:03.275Z,17.3
2019-01-12T02:32:03.428Z,14.8
2019-01-12T02:33:03.686Z,11.2
2019-01-12T02:34:02.931Z,14.8
2019-01-12T02:35:03.545Z,12.2
2019-01-12T02:36:03.755Z,12.2
2019-01-12T02:37:03.600Z,15.8
2019-01-12T02:38:03.352Z,13.3
2019-01-12T02:39:03.535Z,13.3
2019-01-12T02:40:03.555Z,13.3
2019-01-12T02:41:03.313Z,14.8
2019-01-12T02:42:02.878Z,14.8
2019-01-12T02:43:03.665Z,22
2019-01-12T02:44:03.105Z,15.8
2019-01-12T02:45:03.290Z,19.4
2019-01-12T02:46:03.666Z,14.8
2019-01-12T02:47:03.516Z,12.2
2019-01-12T02:48:03.089Z,14.8
2019-01-12T02:49:03.251Z,17.3
2019-01-12T02:50:02.742Z,17.3
2019-01-12T02:51:02.638Z,13.3
2019-01-12T02:52:02.969Z,13.3
2019-01-12T02:53:03.766Z,11.2
2019-01-12T02:54:02.971Z,13.3
2019-01-12T02:55:09.604Z,13.3
2019-01-12T02:56:02.922Z,14.8
2019-01-12T02:57:03.687Z,14.8
2019-01-12T02:58:02.994Z,12.2
2019-01-12T02:59:03.692Z,12.2
2019-01-12T03:00:03.202Z,15.8
2019-01-12T03:01:01.839Z,11.2
2019-01-12T03:02:03.734Z,11.2
2019-01-12T03:03:03.042Z,11.2
2019-01-12T03:04:03.720Z,11.2
2019-01-12T03:05:03.022Z,11.2
2019-01-12T03:06:03.618Z,11.2
2019-01-12T03:07:03.037Z,11.2
2019-01-12T03:08:03.181Z,11.2
2019-01-12T03:09:02.775Z,9.7
2019-01-12T03:10:02.918Z,9.7
2019-01-12T03:11:02.636Z,15.8
2019-01-12T03:12:03.234Z,12.2
2019-01-12T03:13:02.823Z,12.2
2019-01-12T03:14:03.208Z,11.2
2019-01-12T03:15:03.032Z,9.7
2019-01-12T03:16:03.519Z,8.6
2019-01-12T03:17:03.089Z,7.2
2019-01-12T03:18:03.645Z,7.2
2019-01-12T03:19:03.692Z,12.2
2019-01-12T03:20:04.158Z,12.2
2019-01-12T03:21:03.654Z,12.2
2019-01-12T03:22:03.265Z,7.2
2019-01-12T03:23:02.963Z,7.2
2019-01-12T03:24:03.785Z,8.6
2019-01-12T03:25:03.290Z,11.2
2019-01-12T03:26:03.175Z,7.2
2019-01-12T03:27:03.111Z,7.2
2019-01-12T03:28:03.199Z,12.2
2019-01-12T03:29:02.923Z,7.2
2019-01-12T03:30:03.247Z,7.2
2019-01-12T03:31:03.106Z,12.2
2019-01-12T03:32:02.910Z,12.2
2019-01-12T03:33:03.060Z,11.2
2019-01-12T03:34:02.980Z,9.7
2019-01-12T03:35:02.905Z,13.3
2019-01-12T03:36:03.329Z,9.7
2019-01-12T03:37:03.159Z,9.7
2019-01-12T03:38:02.945Z,9.7
2019-01-12T03:39:03.587Z,9.7
2019-01-12T03:40:03.446Z,9.7
2019-01-12T03:41:03.736Z,13.3
2019-01-12T03:42:03.776Z,11.2
2019-01-12T03:43:03.186Z,9.7
2019-01-12T03:44:03.038Z,11.2
2019-01-12T03:45:03.713Z,12.2
2019-01-12T03:46:03.407Z,13.3
2019-01-12T03:47:02.956Z,12.2
2019-01-12T03:48:03.312Z,13.3
2019-01-12T03:49:03.459Z,8.6
2019-01-12T03:50:03.254Z,11.2
2019-01-12T03:51:03.310Z,9.7
2019-01-12T03:52:03.280Z,12.2
2019-01-12T03:53:03.664Z,8.6
2019-01-12T03:54:02.870Z,12.2
2019-01-12T03:55:03.833Z,11.2
2019-01-12T03:56:03.270Z,9.7
2019-01-12T03:57:02.748Z,11.2
2019-01-12T03:58:03.144Z,8.6
2019-01-12T03:59:03.432Z,11.2
2019-01-12T04:00:03.936Z,11.2
2019-01-12T04:01:02.804Z,14.8
2019-01-12T04:02:03.724Z,9.7
2019-01-12T04:03:03.291Z,13.3
2019-01-12T04:04:03.610Z,9.7
2019-01-12T04:05:03.633Z,11.2
2019-01-12T04:06:03.435Z,13.3
2019-01-12T04:07:03.603Z,12.2
2019-01-12T04:08:03.171Z,12.2
2019-01-12T04:09:03.354Z,14.8
2019-01-12T04:10:03.164Z,12.2
2019-01-12T04:11:03.317Z,9.7
2019-01-12T04:12:02.912Z,13.3
2019-01-12T04:13:03.288Z,12.2
2019-01-12T04:14:02.974Z,14.8
2019-01-12T04:15:03.544Z,11.2
2019-01-12T04:16:03.557Z,13.3
2019-01-12T04:17:03.411Z,11.2
2019-01-12T04:18:02.859Z,11.2
2019-01-12T04:19:03.785Z,15.8
2019-01-12T04:20:03.753Z,12.2
2019-01-12T04:21:03.056Z,14.8
2019-01-12T04:22:03.744Z,18.4
2019-01-12T04:23:02.912Z,18.4
2019-01-12T04:24:03.217Z,11.2
2019-01-12T04:25:03.542Z,11.2
2019-01-12T04:26:03.277Z,14.8
2019-01-12T04:27:03.560Z,14.8
2019-01-12T04:28:03.300Z,12.2
2019-01-12T04:29:03.220Z,14.8
2019-01-12T04:30:03.268Z,15.8
2019-01-12T04:31:02.945Z,14.8
2019-01-12T04:32:03.611Z,14.8
2019-01-12T04:33:03.311Z,12.2
2019-01-12T04:34:03.609Z,13.3
2019-01-12T04:35:03.745Z,17.3
2019-01-12T04:36:03.128Z,20.9
2019-01-12T04:37:03.249Z,15.8
2019-01-12T04:38:03.222Z,23.4
2019-01-12T04:39:03.381Z,14.8
2019-01-12T04:40:03.471Z,14.8
2019-01-12T04:41:03.263Z,13.3
2019-01-12T04:42:03.142Z,14.8
2019-01-12T04:43:03.021Z,13.3
2019-01-12T04:44:02.806Z,13.3
2019-01-12T04:45:03.197Z,17.3
2019-01-12T04:46:03.191Z,15.8
2019-01-12T04:47:03.491Z,13.3
2019-01-12T04:48:02.833Z,11.2
2019-01-12T04:49:03.219Z,12.2
2019-01-12T04:50:03.093Z,13.3
2019-01-12T04:51:02.994Z,11.2
2019-01-12T04:52:03.072Z,12.2
2019-01-12T04:53:03.252Z,13.3
2019-01-12T04:54:02.912Z,12.2
2019-01-12T04:55:02.960Z,14.8
2019-01-12T04:56:03.122Z,11.2
2019-01-12T04:57:02.891Z,15.8
2019-01-12T04:58:02.886Z,11.2
2019-01-12T04:59:03.262Z,14.8
2019-01-12T05:00:03.196Z,12.2
2019-01-12T05:01:03.295Z,12.2
2019-01-12T05:02:03.713Z,12.2
2019-01-12T05:03:03.361Z,12.2
2019-01-12T05:04:02.956Z,12.2
2019-01-12T05:05:03.156Z,12.2
2019-01-12T05:06:02.805Z,12.2
2019-01-12T05:07:03.142Z,12.2
2019-01-12T05:08:03.536Z,12.2
2019-01-12T05:09:03.248Z,9.7
2019-01-12T05:10:03.804Z,13.3
2019-01-12T05:11:03.771Z,14.8
2019-01-12T05:12:03.675Z,14.8
2019-01-12T05:13:03.062Z,11.2
2019-01-12T05:14:02.886Z,13.3
2019-01-12T05:15:03.430Z,11.2
2019-01-12T05:16:03.533Z,12.2
2019-01-12T05:17:03.110Z,12.2
2019-01-12T05:18:03.380Z,8.6
2019-01-12T05:19:02.936Z,11.2
2019-01-12T05:20:03.122Z,12.2
2019-01-12T05:21:03.234Z,11.2
2019-01-12T05:22:03.628Z,9.7
2019-01-12T05:23:03.183Z,11.2
2019-01-12T05:24:03.800Z,13.3
2019-01-12T05:25:03.445Z,11.2
2019-01-12T05:26:02.782Z,11.2
2019-01-12T05:27:02.958Z,9.7
2019-01-12T05:28:03.168Z,11.2
2019-01-12T05:29:02.958Z,11.2
2019-01-12T05:30:02.971Z,8.6
2019-01-12T05:31:03.321Z,11.2
2019-01-12T05:32:03.551Z,12.2
2019-01-12T05:33:02.925Z,11.2
2019-01-12T05:34:03.605Z,11.2
2019-01-12T05:35:02.898Z,11.2
2019-01-12T05:36:03.013Z,11.2
2019-01-12T05:37:03.308Z,12.2
2019-01-12T05:38:02.862Z,9.7
2019-01-12T05:39:02.828Z,11.2
2019-01-12T05:40:03.858Z,11.2
2019-01-12T05:41:02.935Z,8.6
2019-01-12T05:42:03.403Z,13.3
2019-01-12T05:43:03.415Z,11.2
2019-01-12T05:44:03.076Z,11.2
2019-01-12T05:45:03.555Z,9.7
2019-01-12T05:46:03.020Z,8.6
2019-01-12T05:47:03.188Z,8.6
2019-01-12T05:48:03.116Z,9.7
2019-01-12T05:49:03.887Z,7.2
2019-01-12T05:50:03.165Z,12.2
2019-01-12T05:51:03.454Z,6.1
2019-01-12T05:52:03.157Z,7.2
2019-01-12T05:53:03.209Z,7.2
2019-01-12T05:54:03.091Z,7.2
2019-01-12T05:55:03.401Z,9.7
2019-01-12T05:56:02.997Z,9.7
2019-01-12T05:57:03.088Z,7.2
2019-01-12T05:58:03.007Z,7.2
2019-01-12T05:59:02.970Z,13.3
2019-01-12T06:00:03.686Z,11.2
2019-01-12T06:01:03.119Z,11.2
2019-01-12T06:02:02.900Z,9.7
2019-01-12T06:03:03.580Z,7.2
2019-01-12T06:04:03.276Z,9.7
2019-01-12T06:05:03.445Z,11.2
2019-01-12T06:06:03.617Z,12.2
2019-01-12T06:07:03.472Z,11.2
2019-01-12T06:08:03.240Z,9.7
2019-01-12T06:09:03.476Z,9.7
2019-01-12T06:10:03.157Z,11.2
2019-01-12T06:11:03.772Z,12.2
2019-01-12T06:12:03.074Z,12.2
2019-01-12T06:13:03.444Z,14.8
2019-01-12T06:14:03.400Z,11.2
2019-01-12T06:15:03.040Z,9.7
2019-01-12T06:16:02.884Z,8.6
2019-01-12T06:17:02.912Z,8.6
2019-01-12T06:18:03.843Z,11.2
2019-01-12T06:19:03.312Z,14.8
2019-01-12T06:20:03.216Z,15.8
2019-01-12T06:21:03.203Z,12.2
2019-01-12T06:22:02.855Z,11.2
2019-01-12T06:23:02.678Z,12.2
2019-01-12T06:24:03.524Z,11.2
2019-01-12T06:25:03.433Z,11.2
2019-01-12T06:26:04.554Z,12.2
2019-01-12T06:27:03.234Z,12.2
2019-01-12T06:28:03.098Z,12.2
2019-01-12T06:29:03.148Z,11.2
2019-01-12T06:30:03.546Z,9.7
2019-01-12T06:31:03.718Z,8.6
2019-01-12T06:32:03.574Z,11.2
2019-01-12T06:33:02.997Z,11.2
2019-01-12T06:34:02.808Z,11.2
2019-01-12T06:35:02.947Z,12.2
2019-01-12T06:36:03.568Z,11.2
2019-01-12T06:37:03.169Z,11.2
2019-01-12T06:38:02.959Z,12.2
2019-01-12T06:39:03.558Z,11.2
2019-01-12T06:40:03.640Z,9.7
2019-01-12T06:41:03.640Z,9.7
2019-01-12T06:42:02.996Z,12.2
2019-01-12T06:43:03.560Z,12.2
2019-01-12T06:44:02.762Z,9.7
2019-01-12T06:45:03.095Z,9.7
2019-01-12T06:46:03.285Z,8.6
2019-01-12T06:47:03.593Z,9.7
2019-01-12T06:48:03.680Z,7.2
2019-01-12T06:49:03.535Z,9.7
2019-01-12T06:50:03.720Z,9.7
2019-01-12T06:51:02.976Z,9.7
2019-01-12T06:52:03.561Z,9.7
2019-01-12T06:53:03.473Z,9.7
2019-01-12T06:54:03.017Z,9.7
2019-01-12T06:55:03.717Z,8.6
2019-01-12T06:56:02.939Z,8.6
2019-01-12T06:57:02.878Z,5
2019-01-12T06:58:03.420Z,6.1
2019-01-12T06:59:03.679Z,6.1
2019-01-12T07:00:02.992Z,6.1
2019-01-12T07:01:03.265Z,6.1
2019-01-12T07:02:03.399Z,6.1
2019-01-12T07:03:03.288Z,6.1
2019-01-12T07:04:03.265Z,6.1
2019-01-12T07:05:03.731Z,6.1
2019-01-12T07:06:03.365Z,6.1
2019-01-12T07:07:03.112Z,6.1
2019-01-12T07:08:02.815Z,6.1
2019-01-12T07:09:02.875Z,6.1
2019-01-12T07:10:03.718Z,6.1
2019-01-12T07:11:03.281Z,5
2019-01-12T07:12:03.150Z,8.6
2019-01-12T07:13:03.470Z,5
2019-01-12T07:14:03.084Z,7.2
2019-01-12T07:15:03.658Z,8.6
2019-01-12T07:16:03.010Z,8.6
2019-01-12T07:17:03.306Z,7.2
2019-01-12T07:18:09.374Z,7.2
2019-01-12T07:19:03.216Z,6.1
2019-01-12T07:20:03.585Z,11.2
2019-01-12T07:21:02.780Z,9.7
2019-01-12T07:22:03.471Z,9.7
2019-01-12T07:23:03.122Z,8.6
2019-01-12T07:24:02.975Z,9.7
2019-01-12T07:25:03.620Z,7.2
2019-01-12T07:26:03.697Z,8.6
2019-01-12T07:27:03.122Z,8.6
2019-01-12T07:28:03.687Z,8.6
2019-01-12T07:29:03.620Z,6.1
2019-01-12T07:30:03.092Z,9.7
2019-01-12T07:31:03.588Z,9.7
2019-01-12T07:32:02.860Z,11.2
2019-01-12T07:33:03.056Z,11.2
2019-01-12T07:34:03.465Z,9.7
2019-01-12T07:35:03.096Z,7.2
2019-01-12T07:36:02.868Z,8.6
2019-01-12T07:37:03.471Z,8.6
2019-01-12T07:38:03.291Z,8.6
2019-01-12T07:39:03.196Z,9.7
2019-01-12T07:40:03.132Z,8.6
2019-01-12T07:41:02.997Z,7.2
2019-01-12T07:42:03.033Z,8.6
2019-01-12T07:43:03.308Z,8.6
2019-01-12T07:44:03.795Z,8.6
2019-01-12T07:45:02.748Z,8.6
2019-01-12T07:46:03.260Z,9.7
2019-01-12T07:47:03.673Z,8.6
2019-01-12T07:48:02.860Z,7.2
2019-01-12T07:49:02.657Z,9.7
2019-01-12T07:50:03.805Z,11.2
2019-01-12T07:51:03.239Z,13.3
2019-01-12T07:52:03.321Z,11.2
2019-01-12T07:53:02.922Z,11.2
2019-01-12T07:54:03.155Z,15.8
2019-01-12T07:55:03.687Z,14.8
2019-01-12T07:56:02.609Z,11.2
2019-01-12T07:57:03.641Z,13.3
2019-01-12T07:58:03.448Z,14.8
2019-01-12T07:59:02.917Z,19.4
2019-01-12T08:00:03.108Z,17.3
2019-01-12T08:01:03.419Z,15.8
2019-01-12T08:02:03.511Z,12.2
2019-01-12T08:03:03.431Z,13.3
2019-01-12T08:04:03.207Z,13.3
2019-01-12T08:05:03.755Z,13.3
2019-01-12T08:06:03.575Z,12.2
2019-01-12T08:07:03.558Z,11.2
2019-01-12T08:08:03.070Z,15.8
2019-01-12T08:09:02.956Z,13.3
2019-01-12T08:10:03.459Z,13.3
2019-01-12T08:11:03.829Z,15.8
2019-01-12T08:12:03.355Z,12.2
2019-01-12T08:13:03.365Z,17.3
2019-01-12T08:14:03.575Z,20.9
2019-01-12T08:15:03.135Z,19.4
2019-01-12T08:16:03.334Z,15.8
2019-01-12T08:17:03.246Z,20.9
2019-01-12T08:18:03.438Z,20.9
2019-01-12T08:19:03.350Z,18.4
2019-01-12T08:20:03.904Z,18.4
2019-01-12T08:21:02.987Z,18.4
2019-01-12T08:22:03.549Z,18.4
2019-01-12T08:23:02.997Z,15.8
2019-01-12T08:24:03.322Z,15.8
2019-01-12T08:25:03.735Z,14.8
2019-01-12T08:26:03.625Z,17.3
2019-01-12T08:27:03.570Z,14.8
2019-01-12T08:28:02.861Z,13.3
2019-01-12T08:29:02.880Z,14.8
2019-01-12T08:30:03.061Z,13.3
2019-01-12T08:31:02.877Z,12.2
2019-01-12T08:32:03.124Z,15.8
2019-01-12T08:33:03.947Z,12.2
2019-01-12T08:34:02.823Z,11.2
2019-01-12T08:35:03.288Z,15.8
2019-01-12T08:36:03.631Z,12.2
2019-01-12T08:37:03.226Z,12.2
2019-01-12T08:38:03.363Z,13.3
2019-01-12T08:39:02.917Z,13.3
2019-01-12T08:40:03.736Z,11.2
2019-01-12T08:41:03.345Z,9.7
2019-01-12T08:42:03.644Z,13.3
2019-01-12T08:43:03.484Z,11.2
2019-01-12T08:44:03.840Z,12.2
2019-01-12T08:45:03.421Z,13.3
2019-01-12T08:46:03.470Z,12.2
2019-01-12T08:47:03.125Z,14.8
2019-01-12T08:48:03.195Z,14.8
2019-01-12T08:49:03.892Z,12.2
2019-01-12T08:50:03.803Z,9.7
2019-01-12T08:51:03.009Z,13.3
2019-01-12T08:52:03.517Z,11.2
2019-01-12T08:53:02.868Z,8.6
2019-01-12T08:54:02.827Z,11.2
2019-01-12T08:55:03.349Z,12.2
2019-01-12T08:56:03.731Z,11.2
2019-01-12T08:57:03.565Z,8.6
2019-01-12T08:58:03.170Z,6.1
2019-01-12T08:59:03.457Z,12.2
2019-01-12T09:00:02.874Z,8.6
2019-01-12T09:01:03.381Z,8.6
2019-01-12T09:02:03.158Z,8.6
2019-01-12T09:03:03.566Z,8.6
2019-01-12T09:04:03.091Z,8.6
2019-01-12T09:05:03.411Z,8.6
2019-01-12T09:06:03.113Z,8.6
2019-01-12T09:07:03.746Z,8.6
2019-01-12T09:08:03.590Z,8.6
2019-01-12T09:09:03.496Z,9.7
2019-01-12T09:10:03.265Z,9.7
2019-01-12T09:11:03.634Z,7.2
2019-01-12T09:12:03.019Z,8.6
2019-01-12T09:13:03.101Z,7.2
2019-01-12T09:14:03.177Z,8.6
2019-01-12T09:15:03.764Z,13.3
2019-01-12T09:16:03.716Z,12.2
2019-01-12T09:17:03.095Z,9.7
2019-01-12T09:18:03.104Z,18.4
2019-01-12T09:19:03.666Z,15.8
2019-01-12T09:20:03.127Z,11.2
2019-01-12T09:21:03.689Z,12.2
2019-01-12T09:22:02.909Z,13.3
2019-01-12T09:23:03.146Z,14.8
2019-01-12T09:24:03.511Z,13.3
2019-01-12T09:25:03.324Z,12.2
2019-01-12T09:26:03.178Z,13.3
2019-01-12T09:27:02.970Z,13.3
2019-01-12T09:28:03.268Z,11.2
2019-01-12T09:29:03.758Z,12.2
2019-01-12T09:30:02.701Z,13.3
2019-01-12T09:31:03.643Z,11.2
2019-01-12T09:32:03.950Z,13.3
2019-01-12T09:33:03.037Z,14.8
2019-01-12T09:34:03.423Z,12.2
2019-01-12T09:35:03.824Z,12.2
2019-01-12T09:36:03.585Z,13.3
2019-01-12T09:37:03.363Z,14.8
2019-01-12T09:38:03.581Z,11.2
2019-01-12T09:39:03.201Z,14.8
2019-01-12T09:40:03.196Z,12.2
2019-01-12T09:41:03.261Z,11.2
2019-01-12T09:42:03.312Z,13.3
2019-01-12T09:43:03.396Z,14.8
2019-01-12T09:44:03.511Z,12.2
2019-01-12T09:45:03.187Z,15.8
2019-01-12T09:46:03.326Z,18.4
2019-01-12T09:47:03.076Z,18.4
2019-01-12T09:48:03.162Z,19.4
2019-01-12T09:49:03.035Z,18.4
2019-01-12T09:50:03.253Z,15.8
2019-01-12T09:51:03.055Z,17.3
2019-01-12T09:52:03.358Z,17.3
2019-01-12T09:53:03.608Z,18.4
2019-01-12T09:54:03.417Z,18.4
2019-01-12T09:55:03.636Z,22
2019-01-12T09:56:03.115Z,19.4
2019-01-12T09:57:02.970Z,25.6
2019-01-12T09:58:03.230Z,15.8
2019-01-12T09:59:03.507Z,25.6
2019-01-12T10:00:02.981Z,17.3
2019-01-12T10:01:03.651Z,18.4
2019-01-12T10:02:03.262Z,25.6
2019-01-12T10:03:03.269Z,25.6
2019-01-12T10:04:03.169Z,15.8
2019-01-12T10:05:03.837Z,17.3
2019-01-12T10:06:03.567Z,22
2019-01-12T10:07:02.883Z,20.9
2019-01-12T10:08:02.942Z,22
2019-01-12T10:09:02.830Z,23.4
2019-01-12T10:10:03.621Z,25.6
2019-01-12T10:11:03.019Z,22
2019-01-12T10:12:03.584Z,18.4
2019-01-12T10:13:03.817Z,22
2019-01-12T10:14:03.773Z,18.4
2019-01-12T10:15:03.373Z,20.9
2019-01-12T10:16:03.383Z,19.4
2019-01-12T10:17:03.136Z,20.9
2019-01-12T10:18:02.915Z,18.4
2019-01-12T10:19:02.850Z,19.4
2019-01-12T10:20:03.111Z,23.4
2019-01-12T10:21:02.745Z,14.8
2019-01-12T10:22:03.108Z,14.8
2019-01-12T10:23:03.460Z,17.3
2019-01-12T10:24:02.689Z,19.4
2019-01-12T10:25:03.201Z,17.3
2019-01-12T10:26:02.991Z,20.9
2019-01-12T10:27:03.083Z,17.3
2019-01-12T10:28:03.715Z,19.4
2019-01-12T10:29:03.399Z,23.4
2019-01-12T10:30:03.218Z,23.4
2019-01-12T10:31:02.968Z,24.5
2019-01-12T10:32:03.425Z,22
2019-01-12T10:33:03.126Z,22
2019-01-12T10:34:03.078Z,22
2019-01-12T10:35:03.597Z,22
2019-01-12T10:36:03.942Z,19.4
2019-01-12T10:37:02.953Z,19.4
2019-01-12T10:38:02.849Z,18.4
2019-01-12T10:39:03.011Z,17.3
2019-01-12T10:40:03.625Z,18.4
2019-01-12T10:41:03.655Z,14.8
2019-01-12T10:42:02.934Z,17.3
2019-01-12T10:43:03.782Z,20.9
2019-01-12T10:44:03.284Z,17.3
2019-01-12T10:45:04.955Z,17.3
2019-01-12T10:46:04.006Z,14.8
2019-01-12T10:47:02.742Z,11.2
2019-01-12T10:48:02.850Z,11.2
2019-01-12T10:49:03.165Z,13.3
2019-01-12T10:50:03.167Z,12.2
2019-01-12T10:51:03.431Z,12.2
2019-01-12T10:52:03.603Z,14.8
2019-01-12T10:53:03.014Z,12.2
2019-01-12T10:54:03.137Z,12.2
2019-01-12T10:55:03.292Z,14.8
2019-01-12T10:56:03.045Z,12.2
2019-01-12T10:57:06.112Z,12.2
2019-01-12T10:58:02.889Z,8.6
2019-01-12T10:59:02.946Z,8.6
2019-01-12T11:00:03.530Z,6.1
2019-01-12T11:01:03.282Z,11.2
2019-01-12T11:02:03.186Z,11.2
2019-01-12T11:03:03.444Z,11.2
2019-01-12T11:04:02.851Z,11.2
2019-01-12T11:05:03.626Z,11.2
2019-01-12T11:06:03.582Z,11.2
2019-01-12T11:07:03.180Z,11.2
2019-01-12T11:08:02.919Z,11.2
2019-01-12T11:09:03.433Z,14.8
2019-01-12T11:10:04.786Z,7.2
2019-01-12T11:11:02.877Z,9.7
2019-01-12T11:12:02.617Z,9.7
2019-01-12T11:13:03.295Z,12.2
2019-01-12T11:14:02.968Z,12.2
2019-01-12T11:15:03.234Z,13.3
2019-01-12T11:16:03.461Z,9.7
2019-01-12T11:17:03.314Z,9.7
2019-01-12T11:18:03.257Z,8.6
2019-01-12T11:19:03.038Z,9.7
2019-01-12T11:20:03.292Z,8.6
2019-01-12T11:21:03.719Z,13.3
2019-01-12T11:22:02.969Z,14.8
2019-01-12T11:23:03.382Z,11.2
2019-01-12T11:24:04.126Z,13.3
2019-01-12T11:25:03.544Z,12.2
2019-01-12T11:26:03.253Z,14.8
2019-01-12T11:27:03.434Z,13.3
2019-01-12T11:28:03.062Z,13.3
2019-01-12T11:29:03.129Z,13.3
2019-01-12T11:30:03.464Z,14.8
2019-01-12T11:31:03.221Z,13.3
2019-01-12T11:32:03.671Z,13.3
2019-01-12T11:33:03.443Z,17.3
2019-01-12T11:34:02.917Z,13.3
2019-01-12T11:35:03.752Z,13.3
2019-01-12T11:36:02.817Z,13.3
2019-01-12T11:37:03.370Z,11.2
2019-01-12T11:38:03.670Z,11.2
2019-01-12T11:39:03.398Z,12.2
2019-01-12T11:40:03.296Z,15.8
2019-01-12T11:41:03.490Z,12.2
2019-01-12T11:42:03.335Z,12.2
2019-01-12T11:43:02.968Z,13.3
2019-01-12T11:44:03.431Z,13.3
2019-01-12T11:45:03.504Z,13.3
2019-01-12T11:46:03.373Z,13.3
2019-01-12T11:47:03.004Z,12.2
2019-01-12T11:48:03.114Z,15.8
2019-01-12T11:49:03.513Z,14.8
2019-01-12T11:50:03.486Z,13.3
2019-01-12T11:51:02.939Z,15.8
2019-01-12T11:52:03.565Z,12.2
2019-01-12T11:53:03.502Z,14.8
2019-01-12T11:54:02.852Z,11.2
2019-01-12T11:55:03.540Z,12.2
2019-01-12T11:56:02.887Z,13.3
2019-01-12T11:57:03.389Z,12.2
2019-01-12T11:58:03.340Z,15.8
2019-01-12T11:59:03.143Z,12.2
2019-01-12T12:00:03.164Z,12.2
2019-01-12T12:01:02.911Z,14.8
2019-01-12T12:02:03.033Z,13.3
2019-01-12T12:03:03.663Z,15.8
2019-01-12T12:04:03.111Z,11.2
2019-01-12T12:05:03.023Z,14.8
2019-01-12T12:06:02.880Z,13.3
2019-01-12T12:07:03.085Z,15.8
2019-01-12T12:08:03.186Z,14.8
2019-01-12T12:09:02.902Z,14.8
2019-01-12T12:10:03.175Z,17.3
2019-01-12T12:11:03.112Z,15.8
2019-01-12T12:12:03.033Z,14.8
2019-01-12T12:13:03.354Z,13.3
2019-01-12T12:14:03.612Z,14.8
2019-01-12T12:15:03.739Z,11.2
2019-01-12T12:16:03.663Z,14.8
2019-01-12T12:17:03.547Z,15.8
2019-01-12T12:18:03.728Z,13.3
2019-01-12T12:19:03.657Z,14.8
2019-01-12T12:20:03.384Z,15.8
2019-01-12T12:21:03.680Z,12.2
2019-01-12T12:22:03.355Z,12.2
2019-01-12T12:23:03.121Z,9.7
2019-01-12T12:24:03.476Z,9.7
2019-01-12T12:25:03.044Z,17.3
2019-01-12T12:26:02.757Z,14.8
2019-01-12T12:27:02.954Z,14.8
2019-01-12T12:28:03.308Z,14.8
2019-01-12T12:29:03.729Z,9.7
2019-01-12T12:30:03.204Z,13.3
2019-01-12T12:31:03.096Z,19.4
2019-01-12T12:32:03.406Z,17.3
2019-01-12T12:33:02.884Z,18.4
2019-01-12T12:34:03.113Z,18.4
2019-01-12T12:35:02.900Z,17.3
2019-01-12T12:36:02.895Z,19.4
2019-01-12T12:37:02.953Z,20.9
2019-01-12T12:38:03.817Z,18.4
2019-01-12T12:39:03.556Z,17.3
2019-01-12T12:40:02.946Z,14.8
2019-01-12T12:41:03.537Z,18.4
2019-01-12T12:42:02.918Z,17.3
2019-01-12T12:43:03.244Z,15.8
2019-01-12T12:44:03.791Z,17.3
2019-01-12T12:45:04.002Z,18.4
2019-01-12T12:46:03.474Z,12.2
2019-01-12T12:47:03.197Z,19.4
2019-01-12T12:48:03.164Z,14.8
2019-01-12T12:49:03.605Z,12.2
2019-01-12T12:50:02.924Z,12.2
2019-01-12T12:51:02.918Z,13.3
2019-01-12T12:52:03.536Z,13.3
2019-01-12T12:53:03.109Z,15.8
2019-01-12T12:54:02.632Z,11.2
2019-01-12T12:55:03.116Z,13.3
2019-01-12T12:56:03.582Z,13.3
2019-01-12T12:57:03.051Z,13.3
2019-01-12T12:58:03.293Z,18.4
2019-01-12T12:59:03.713Z,15.8
2019-01-12T13:00:03.850Z,12.2
2019-01-12T13:01:03.773Z,14.8
2019-01-12T13:02:03.470Z,14.8
2019-01-12T13:03:03.068Z,14.8
2019-01-12T13:04:03.049Z,14.8
2019-01-12T13:05:03.419Z,14.8
2019-01-12T13:06:03.168Z,14.8
2019-01-12T13:07:03.324Z,14.8
2019-01-12T13:08:03.411Z,14.8
2019-01-12T13:09:03.273Z,17.3
2019-01-12T13:10:03.139Z,12.2
2019-01-12T13:11:03.640Z,13.3
2019-01-12T13:12:03.678Z,13.3
2019-01-12T13:13:03.083Z,12.2
2019-01-12T13:14:03.186Z,14.8
2019-01-12T13:15:02.931Z,17.3
2019-01-12T13:16:02.895Z,14.8
2019-01-12T13:17:03.597Z,14.8
2019-01-12T13:18:02.975Z,14.8
2019-01-12T13:20:54.018Z,15.8
2019-01-12T13:21:02.701Z,14.8
2019-01-12T13:21:46.409Z,14.8
2019-01-12T13:22:03.360Z,15.8
2019-01-12T13:23:03.014Z,12.2
2019-01-12T13:24:03.592Z,11.2
2019-01-12T13:25:02.887Z,11.2